createdAt,value
2023-04-01T00:02:05.019Z,0.50
2023-04-01T00:04:33.964Z,0.70
2023-04-01T00:07:05.004Z,0.55
2023-04-01T00:09:33.737Z,0.40
2023-04-01T00:12:01.987Z,1.00
2023-04-01T00:14:38.992Z,0.85
2023-04-01T00:17:08.610Z,0.95
2023-04-01T00:19:36.962Z,0.60
2023-04-01T00:22:07.765Z,0.47
2023-04-01T00:24:37.682Z,1.00
2023-04-01T00:27:10.940Z,0.70
2023-04-01T00:29:40.134Z,0.50
2023-04-01T00:32:08.654Z,0.50
2023-04-01T00:34:38.628Z,0.88
2023-04-01T00:37:07.073Z,0.70
2023-04-01T00:39:36.678Z,0.65
2023-04-01T00:42:07.491Z,0.60
2023-04-01T00:44:39.513Z,1.00
2023-04-01T00:47:09.085Z,0.90
2023-04-01T00:49:42.732Z,0.32
2023-04-01T00:52:14.745Z,0.38
2023-04-01T00:54:48.024Z,0.40
2023-04-01T00:57:18.925Z,0.43
2023-04-01T00:59:53.620Z,0.27
2023-04-01T01:02:22.797Z,0.60
2023-04-01T01:04:51.561Z,0.63
2023-04-01T01:07:19.798Z,0.50
2023-04-01T01:10:03.263Z,0.50
2023-04-01T01:12:55.577Z,0.38
2023-04-01T01:15:28.147Z,0.63
2023-04-01T01:18:01.304Z,0.28
2023-04-01T01:20:46.057Z,0.50
2023-04-01T01:23:33.052Z,0.77
2023-04-01T01:26:19.857Z,0.45
2023-04-01T01:29:06.678Z,0.57
2023-04-01T01:31:37.673Z,0.40
2023-04-01T01:34:05.963Z,0.50
2023-04-01T01:36:35.680Z,0.40
2023-04-01T01:39:09.874Z,0.47
2023-04-01T01:41:40.188Z,0.30
2023-04-01T01:44:10.471Z,0.20
2023-04-01T01:46:43.256Z,0.52
2023-04-01T01:49:12.742Z,0.60
2023-04-01T01:51:45.599Z,0.45
2023-04-01T01:54:15.775Z,0.30
2023-04-01T01:56:48.838Z,0.40
2023-04-01T01:59:19.990Z,0.50
2023-04-01T02:01:52.376Z,0.50
2023-04-01T02:04:21.331Z,0.40
2023-04-01T02:07:00.045Z,0.70
2023-04-01T02:09:28.477Z,0.57
2023-04-01T02:11:59.618Z,0.40
2023-04-01T02:14:38.279Z,0.50
2023-04-01T02:17:09.193Z,0.55
2023-04-01T02:19:47.133Z,0.47
2023-04-01T02:22:19.915Z,0.73
2023-04-01T02:24:49.367Z,0.53
2023-04-01T02:27:17.714Z,0.80
2023-04-01T02:29:46.050Z,0.85
2023-04-01T02:32:14.993Z,0.68
2023-04-01T02:34:46.648Z,1.13
2023-04-01T02:37:16.541Z,1.15
2023-04-01T02:39:44.784Z,0.85
2023-04-01T02:42:13.460Z,0.70
2023-04-01T02:44:44.409Z,0.82
2023-04-01T02:47:13.052Z,0.50
2023-04-01T02:49:42.705Z,0.50
2023-04-01T02:52:13.468Z,0.60
2023-04-01T02:54:41.757Z,0.60
2023-04-01T02:57:16.136Z,0.45
2023-04-01T02:59:53.901Z,0.90
2023-04-01T03:02:22.500Z,0.47
2023-04-01T03:04:51.572Z,0.60
2023-04-01T03:07:23.109Z,0.65
2023-04-01T03:09:51.546Z,1.02
2023-04-01T03:12:20.114Z,0.55
2023-04-01T03:14:52.730Z,0.57
2023-04-01T03:17:22.292Z,0.70
2023-04-01T03:19:56.565Z,0.60
2023-04-01T03:22:25.263Z,0.50
2023-04-01T03:24:53.789Z,0.50
2023-04-01T03:27:22.138Z,0.43
2023-04-01T03:29:51.795Z,0.80
2023-04-01T03:32:20.155Z,0.50
2023-04-01T03:34:49.214Z,1.00
2023-04-01T03:37:18.556Z,0.60
2023-04-01T03:39:47.152Z,0.60
2023-04-01T03:42:16.123Z,0.50
2023-04-01T03:44:44.812Z,0.88
2023-04-01T03:47:14.241Z,0.60
2023-04-01T03:49:42.664Z,0.70
2023-04-01T03:52:12.177Z,0.60
2023-04-01T03:54:40.812Z,0.60
2023-04-01T03:57:12.395Z,0.65
2023-04-01T03:59:41.644Z,0.60
2023-04-01T04:02:15.062Z,0.70
2023-04-01T04:04:44.774Z,0.52
2023-04-01T04:07:16.052Z,0.60
2023-04-01T04:10:08.419Z,0.95
2023-04-01T04:12:41.432Z,0.45
2023-04-01T04:15:10.960Z,0.50
2023-04-01T04:17:42.316Z,0.60
2023-04-01T04:20:11.273Z,0.45
2023-04-01T04:22:43.453Z,0.85
2023-04-01T04:25:11.958Z,0.75
2023-04-01T04:27:43.244Z,0.60
2023-04-01T04:30:14.187Z,0.70
2023-04-01T04:33:03.177Z,0.80
2023-04-01T04:35:33.158Z,0.80
2023-04-01T04:38:02.481Z,0.85
2023-04-01T04:40:35.261Z,1.00
2023-04-01T04:43:04.791Z,0.73
2023-04-01T04:45:36.003Z,0.65
2023-04-01T04:48:07.215Z,0.73
2023-04-01T04:50:38.490Z,0.80
2023-04-01T04:53:11.471Z,0.80
2023-04-01T04:55:49.470Z,1.17
2023-04-01T04:58:32.791Z,1.13
2023-04-01T05:01:10.638Z,0.90
2023-04-01T05:03:40.947Z,1.38
2023-04-01T05:06:12.327Z,1.27
2023-04-01T05:08:41.330Z,1.17
2023-04-01T05:11:13.842Z,1.27
2023-04-01T05:13:45.543Z,1.38
2023-04-01T05:16:15.368Z,1.90
2023-04-01T05:18:44.247Z,1.17
2023-04-01T05:21:13.573Z,1.38
2023-04-01T05:23:42.028Z,1.23
2023-04-01T05:26:12.726Z,1.45
2023-04-01T05:28:44.916Z,1.73
2023-04-01T05:31:16.046Z,2.00
2023-04-01T05:33:48.067Z,1.73
2023-04-01T05:36:22.504Z,2.45
2023-04-01T05:38:56.733Z,2.00
2023-04-01T05:41:28.023Z,2.00
2023-04-01T05:43:56.458Z,2.28
2023-04-01T05:46:43.114Z,1.73
2023-04-01T05:49:32.511Z,2.63
2023-04-01T05:52:04.844Z,2.55
2023-04-01T05:54:36.121Z,2.33
2023-04-01T05:57:04.579Z,2.75
2023-04-01T05:59:35.822Z,3.15
2023-04-01T06:02:05.822Z,1.70
2023-04-01T06:04:36.953Z,3.10
2023-04-01T06:07:12.966Z,2.63
2023-04-01T06:09:44.033Z,2.10
2023-04-01T06:12:18.041Z,2.53
2023-04-01T06:14:53.729Z,2.70
2023-04-01T06:17:24.935Z,3.13
2023-04-01T06:22:31.729Z,3.00
2023-04-01T06:25:07.245Z,2.25
2023-04-01T06:27:35.768Z,2.47
2023-04-01T06:30:07.086Z,2.63
2023-04-01T06:32:36.937Z,3.00
2023-04-01T06:35:22.209Z,2.95
2023-04-01T06:38:08.188Z,2.88
2023-04-01T06:40:45.024Z,3.03
2023-04-01T06:43:17.968Z,2.47
2023-04-01T06:46:29.369Z,2.92
2023-04-01T06:49:34.886Z,3.25
2023-04-01T06:52:24.299Z,3.10
2023-04-01T06:55:26.466Z,2.72
2023-04-01T06:58:36.739Z,2.40
2023-04-01T07:01:09.361Z,2.70
2023-04-01T07:03:46.766Z,2.60
2023-04-01T07:06:18.266Z,2.80
2023-04-01T07:08:58.367Z,2.67
2023-04-01T07:11:30.547Z,2.70
2023-04-01T07:14:33.906Z,2.55
2023-04-01T07:17:17.819Z,2.88
2023-04-01T07:20:02.980Z,2.40
2023-04-01T07:22:40.280Z,2.50
2023-04-01T07:25:26.187Z,2.80
2023-04-01T07:28:18.059Z,2.30
2023-04-01T07:31:09.413Z,2.70
2023-04-01T07:33:44.222Z,2.80
2023-04-01T07:36:20.962Z,2.90
2023-04-01T07:39:08.203Z,2.72
2023-04-01T07:42:13.885Z,3.00
2023-04-01T07:45:01.112Z,2.90
2023-04-01T07:47:49.925Z,2.95
2023-04-01T07:50:27.444Z,3.33
2023-04-01T07:53:08.096Z,3.63
2023-04-01T07:55:45.599Z,3.95
2023-04-01T07:58:13.707Z,3.55
2023-04-01T08:00:48.301Z,3.47
2023-04-01T08:03:30.978Z,3.47
2023-04-01T08:06:02.476Z,4.22
2023-04-01T08:08:38.209Z,4.13
2023-04-01T08:11:24.844Z,4.75
2023-04-01T08:14:42.706Z,4.40
2023-04-01T08:17:50.084Z,4.50
2023-04-01T08:20:28.319Z,3.97
2023-04-01T08:23:02.697Z,4.82
2023-04-01T08:25:41.683Z,4.82
2023-04-01T08:28:15.349Z,5.32
2023-04-01T08:30:51.198Z,4.55
2023-04-01T08:33:26.109Z,4.85
2023-04-01T08:36:15.712Z,4.10
2023-04-01T08:38:57.773Z,3.85
2023-04-01T08:41:38.870Z,4.80
2023-04-01T08:44:44.438Z,3.95
2023-04-01T08:47:26.035Z,4.13
2023-04-01T08:50:08.133Z,4.45
2023-04-01T08:53:13.349Z,7.18
2023-04-01T08:56:03.856Z,5.22
2023-04-01T08:58:55.687Z,6.90
2023-04-01T09:01:54.231Z,5.88
2023-04-01T09:05:01.200Z,4.97
2023-04-01T09:07:43.122Z,4.95
2023-04-01T09:10:26.308Z,6.35
2023-04-01T09:13:08.181Z,6.53
2023-04-01T09:15:56.238Z,6.47
2023-04-01T09:18:31.718Z,6.95
2023-04-01T09:21:05.876Z,7.53
2023-04-01T09:23:43.037Z,7.35
2023-04-01T09:26:24.075Z,7.03
2023-04-01T09:28:52.019Z,7.80
2023-04-01T09:31:49.036Z,8.52
2023-04-01T09:34:34.633Z,9.80
2023-04-01T09:37:22.531Z,14.13
2023-04-01T09:40:13.952Z,8.80
2023-04-01T09:42:47.678Z,8.98
2023-04-01T09:45:40.228Z,7.28
2023-04-01T09:48:12.887Z,9.68
2023-04-01T09:50:48.403Z,8.20
2023-04-01T09:53:35.897Z,9.38
2023-04-01T09:56:07.964Z,9.43
2023-04-01T09:58:43.709Z,9.90
2023-04-01T10:01:45.568Z,9.35
2023-04-01T10:04:51.658Z,8.93
2023-04-01T10:07:38.579Z,10.02
2023-04-01T10:10:26.322Z,10.57
2023-04-01T10:13:00.318Z,10.38
2023-04-01T10:15:45.768Z,10.38
2023-04-01T10:18:39.800Z,11.20
2023-04-01T10:21:31.200Z,11.52
2023-04-01T10:24:29.358Z,12.68
2023-04-01T10:27:29.413Z,12.13
2023-04-01T10:30:28.081Z,11.27
2023-04-01T10:33:04.334Z,10.10
2023-04-01T10:35:44.672Z,10.50
2023-04-01T10:38:19.535Z,10.20
2023-04-01T10:41:01.904Z,9.68
2023-04-01T10:44:07.730Z,8.93
2023-04-01T10:46:44.422Z,10.60
2023-04-01T10:49:27.719Z,12.07
2023-04-01T10:52:05.331Z,9.63
2023-04-01T10:54:55.093Z,10.30
2023-04-01T10:57:58.172Z,9.77
2023-04-01T11:01:04.483Z,10.35
2023-04-01T11:04:10.305Z,9.90
2023-04-01T11:06:38.294Z,9.90
2023-04-01T11:09:31.899Z,9.20
2023-04-01T11:12:22.299Z,14.77
2023-04-01T11:15:04.005Z,9.65
2023-04-01T11:18:11.297Z,11.13
2023-04-01T11:20:56.223Z,9.02
2023-04-01T11:23:29.394Z,9.48
2023-04-01T11:26:10.599Z,9.48
2023-04-01T11:29:24.208Z,8.98
2023-04-01T11:31:53.514Z,9.10
2023-04-01T11:34:51.552Z,9.10
2023-04-01T11:37:23.287Z,9.60
2023-04-01T11:40:30.659Z,9.57
2023-04-01T11:43:39.594Z,9.05
2023-04-01T11:46:33.480Z,8.90
2023-04-01T11:49:17.516Z,8.82
2023-04-01T11:52:14.905Z,9.05
2023-04-01T11:54:45.854Z,7.05
2023-04-01T11:57:17.044Z,8.32
2023-04-01T11:59:54.163Z,6.97
2023-04-01T12:02:31.289Z,6.55
2023-04-01T12:04:59.568Z,6.85
2023-04-01T12:07:46.577Z,7.45
2023-04-01T12:10:19.274Z,8.02
2023-04-01T12:13:09.072Z,7.32
2023-04-01T12:15:43.877Z,8.27
2023-04-01T12:18:31.121Z,7.45
2023-04-01T12:21:10.758Z,7.63
2023-04-01T12:23:38.885Z,8.07
2023-04-01T12:26:06.885Z,7.75
2023-04-01T12:28:53.522Z,9.65
2023-04-01T12:31:29.693Z,8.93
2023-04-01T12:34:07.133Z,9.85
2023-04-01T12:36:53.620Z,10.02
2023-04-01T12:39:50.428Z,8.85
2023-04-01T12:42:18.360Z,9.80
2023-04-01T12:44:46.343Z,10.38
2023-04-01T12:47:35.008Z,10.55
2023-04-01T12:50:06.656Z,10.18
2023-04-01T12:52:35.754Z,10.57
2023-04-01T12:55:10.562Z,10.65
2023-04-01T12:57:41.663Z,11.13
2023-04-01T13:00:24.852Z,10.27
2023-04-01T13:02:53.426Z,10.07
2023-04-01T13:05:27.504Z,10.27
2023-04-01T13:07:58.523Z,10.77
2023-04-01T13:10:44.577Z,11.90
2023-04-01T13:13:25.266Z,11.45
2023-04-01T13:16:11.931Z,9.93
2023-04-01T13:18:39.961Z,10.63
2023-04-01T13:21:21.138Z,9.70
2023-04-01T13:23:52.078Z,9.57
2023-04-01T13:26:38.957Z,15.40
2023-04-01T13:29:06.903Z,9.23
2023-04-01T13:31:50.468Z,8.60
2023-04-01T13:34:37.552Z,9.18
2023-04-01T13:37:24.265Z,8.70
2023-04-01T13:40:05.591Z,8.60
2023-04-01T13:42:37.220Z,7.80
2023-04-01T13:45:16.421Z,7.80
2023-04-01T13:48:14.673Z,8.00
2023-04-01T13:50:55.582Z,8.07
2023-04-01T13:53:35.451Z,8.45
2023-04-01T13:56:23.964Z,8.52
2023-04-01T13:58:51.866Z,8.98
2023-04-01T14:01:29.088Z,8.93
2023-04-01T14:04:16.059Z,7.68
2023-04-01T14:06:47.293Z,8.52
2023-04-01T14:09:21.349Z,8.02
2023-04-01T14:12:01.193Z,8.30
2023-04-01T14:14:35.653Z,7.88
2023-04-01T14:17:10.495Z,7.90
2023-04-01T14:19:57.092Z,8.27
2023-04-01T14:22:25.037Z,8.13
2023-04-01T14:25:11.802Z,7.50
2023-04-01T14:27:52.162Z,7.03
2023-04-01T14:30:31.996Z,7.85
2023-04-01T14:33:24.924Z,6.93
2023-04-01T14:36:03.170Z,8.85
2023-04-01T14:38:37.324Z,7.75
2023-04-01T14:41:24.275Z,7.07
2023-04-01T14:44:12.606Z,7.90
2023-04-01T14:46:52.651Z,7.30
2023-04-01T14:49:34.491Z,7.60
2023-04-01T14:52:23.805Z,6.25
2023-04-01T14:54:52.554Z,6.55
2023-04-01T14:57:29.717Z,6.63
2023-04-01T15:00:18.779Z,6.82
2023-04-01T15:03:14.391Z,5.88
2023-04-01T15:05:46.419Z,6.63
2023-04-01T15:08:34.921Z,7.10
2023-04-01T15:11:02.931Z,6.25
2023-04-01T15:13:30.930Z,7.25
2023-04-01T15:16:05.035Z,6.78
2023-04-01T15:18:32.984Z,6.95
2023-04-01T15:21:19.230Z,6.82
2023-04-01T15:23:47.280Z,6.20
2023-04-01T15:26:26.844Z,6.75
2023-04-01T15:29:13.861Z,7.53
2023-04-01T15:32:03.350Z,6.72
2023-04-01T15:34:34.301Z,6.00
2023-04-01T15:37:06.226Z,6.50
2023-04-01T15:39:55.418Z,6.35
2023-04-01T15:42:29.588Z,6.03
2023-04-01T15:45:04.022Z,6.45
2023-04-01T15:47:44.573Z,6.70
2023-04-01T15:50:21.895Z,6.75
2023-04-01T15:52:52.655Z,5.55
2023-04-01T15:55:39.198Z,4.57
2023-04-01T15:58:07.144Z,4.93
2023-04-01T16:00:47.404Z,4.38
2023-04-01T16:03:21.703Z,4.35
2023-04-01T16:06:08.455Z,4.47
2023-04-01T16:08:36.766Z,4.88
2023-04-01T16:11:17.254Z,4.88
2023-04-01T16:13:50.959Z,4.43
2023-04-01T16:16:21.297Z,4.70
2023-04-01T16:18:55.398Z,5.15
2023-04-01T16:21:29.650Z,4.25
2023-04-01T16:23:59.861Z,4.35
2023-04-01T16:26:31.994Z,4.80
2023-04-01T16:29:06.173Z,4.55
2023-04-01T16:31:37.877Z,5.05
2023-04-01T16:34:10.952Z,5.10
2023-04-01T16:36:53.890Z,4.93
2023-04-01T16:39:42.010Z,5.22
2023-04-01T16:42:10.332Z,4.47
2023-04-01T16:44:50.694Z,4.65
2023-04-01T16:47:33.339Z,5.15
2023-04-01T16:50:07.478Z,5.03
2023-04-01T16:53:01.940Z,4.40
2023-04-01T16:55:48.746Z,5.75
2023-04-01T16:58:20.873Z,9.25
2023-04-01T17:00:54.254Z,6.00
2023-04-01T17:03:27.970Z,6.20
2023-04-01T17:06:21.559Z,6.28
2023-04-01T17:08:49.685Z,6.60
2023-04-01T17:11:29.984Z,5.68
2023-04-01T17:14:13.790Z,6.53
2023-04-01T17:16:50.453Z,7.45
2023-04-01T17:19:25.560Z,6.78
2023-04-01T17:22:07.653Z,6.50
2023-04-01T17:24:53.669Z,6.30
2023-04-01T17:27:35.208Z,7.35
2023-04-01T17:30:13.253Z,7.47
2023-04-01T17:33:04.225Z,7.70
2023-04-01T17:35:34.931Z,7.18
2023-04-01T17:38:24.467Z,7.43
2023-04-01T17:40:54.934Z,8.40
2023-04-01T17:43:32.277Z,9.23
2023-04-01T17:46:06.177Z,10.38
2023-04-01T17:48:52.580Z,9.65
2023-04-01T17:51:26.953Z,9.35
2023-04-01T17:53:55.229Z,9.90
2023-04-01T17:56:30.000Z,10.88
2023-04-01T17:59:04.645Z,10.50
2023-04-01T18:01:38.717Z,10.32
2023-04-01T18:04:18.365Z,11.18
2023-04-01T18:06:54.312Z,11.73
2023-04-01T18:09:28.293Z,11.55
2023-04-01T18:12:01.566Z,12.30
2023-04-01T18:14:49.089Z,11.75
2023-04-01T18:17:28.386Z,11.75
2023-04-01T18:20:02.369Z,13.50
2023-04-01T18:22:48.064Z,13.23
2023-04-01T18:25:19.195Z,16.77
2023-04-01T18:28:06.067Z,18.08
2023-04-01T18:30:35.176Z,15.85
2023-04-01T18:33:08.669Z,20.88
2023-04-01T18:35:36.935Z,14.57
2023-04-01T18:38:18.864Z,15.65
2023-04-01T18:40:54.938Z,11.52
2023-04-01T18:43:43.339Z,15.23
2023-04-01T18:46:19.856Z,11.55
2023-04-01T18:48:50.499Z,12.65
2023-04-01T18:51:21.610Z,11.10
2023-04-01T18:53:59.237Z,12.00
2023-04-01T18:56:27.716Z,11.15
2023-04-01T18:59:01.034Z,12.20
2023-04-01T19:01:30.360Z,9.93
2023-04-01T19:04:16.878Z,10.77
2023-04-01T19:06:52.790Z,11.15
2023-04-01T19:09:43.599Z,11.50
2023-04-01T19:12:14.436Z,11.30
2023-04-01T19:14:47.709Z,11.43
2023-04-01T19:17:25.110Z,10.15
2023-04-01T19:20:02.449Z,10.70
2023-04-01T19:22:54.721Z,13.50
2023-04-01T19:25:32.870Z,10.48
2023-04-01T19:28:09.534Z,11.80
2023-04-01T19:30:42.581Z,8.88
2023-04-01T19:33:47.517Z,9.40
2023-04-01T19:39:02.206Z,18.75
2023-04-01T19:41:31.228Z,20.67
2023-04-01T19:44:08.849Z,12.73
2023-04-01T19:46:42.987Z,8.88
2023-04-01T19:49:29.415Z,7.55
2023-04-01T19:51:59.893Z,8.52
2023-04-01T19:54:45.293Z,8.40
2023-04-01T19:57:29.384Z,8.38
2023-04-01T20:00:10.443Z,7.88
2023-04-01T20:02:59.578Z,6.72
2023-04-01T20:05:34.193Z,6.50
2023-04-01T20:08:09.957Z,6.93
2023-04-01T20:10:53.918Z,7.30
2023-04-01T20:13:29.190Z,5.60
2023-04-01T20:16:00.626Z,5.32
2023-04-01T20:18:35.153Z,5.22
2023-04-01T20:21:27.041Z,6.35
2023-04-01T20:24:00.272Z,6.32
2023-04-01T20:26:32.250Z,6.33
2023-04-01T20:29:12.583Z,6.28
2023-04-01T20:31:45.910Z,6.55
2023-04-01T20:34:14.043Z,6.30
2023-04-01T20:37:00.877Z,5.90
2023-04-01T20:39:47.778Z,5.75
2023-04-01T20:42:18.385Z,5.95
2023-04-01T20:44:54.005Z,6.15
2023-04-01T20:47:44.737Z,7.45
2023-04-01T20:50:33.495Z,6.82
2023-04-01T20:53:01.430Z,6.38
2023-04-01T20:55:41.829Z,5.55
2023-04-01T20:58:16.039Z,5.68
2023-04-01T21:00:46.789Z,5.22
2023-04-01T21:03:32.436Z,5.07
2023-04-01T21:06:06.587Z,4.50
2023-04-01T21:08:53.082Z,4.93
2023-04-01T21:11:32.075Z,4.68
2023-04-01T21:14:00.077Z,5.38
2023-04-01T21:16:34.434Z,5.97
2023-04-01T21:19:23.276Z,4.55
2023-04-01T21:22:08.885Z,4.28
2023-04-01T21:24:55.554Z,4.57
2023-04-01T21:27:36.409Z,5.05
2023-04-01T21:30:10.420Z,4.82
2023-04-01T21:32:46.062Z,5.22
2023-04-01T21:35:28.140Z,4.05
2023-04-01T21:37:56.161Z,4.00
2023-04-01T21:40:27.242Z,3.60
2023-04-01T21:42:55.155Z,4.03
2023-04-01T21:45:45.798Z,3.55
2023-04-01T21:48:26.290Z,3.30
2023-04-01T21:51:26.511Z,4.13
2023-04-01T21:53:54.385Z,4.15
2023-04-01T21:56:34.027Z,4.28
2023-04-01T21:59:13.285Z,5.65
2023-04-01T22:02:07.283Z,6.07
2023-04-01T22:04:41.056Z,6.63
2023-04-01T22:09:39.982Z,6.22
2023-04-01T22:12:19.086Z,6.03
2023-04-01T22:14:59.025Z,6.07
2023-04-01T22:17:37.755Z,5.90
2023-04-01T22:20:17.322Z,5.82
2023-04-01T22:22:56.689Z,5.63
2023-04-01T22:25:45.856Z,5.25
2023-04-01T22:28:21.625Z,5.13
2023-04-01T22:30:52.748Z,5.07
2023-04-01T22:33:23.016Z,4.75
2023-04-01T22:35:57.055Z,5.78
2023-04-01T22:38:45.868Z,4.95
2023-04-01T22:41:20.190Z,6.25
2023-04-01T22:43:49.569Z,6.10
2023-04-01T22:46:44.810Z,6.85
2023-04-01T22:49:23.512Z,7.00
2023-04-01T22:51:57.951Z,6.35
2023-04-01T22:54:47.296Z,6.53
2023-04-01T22:57:32.674Z,7.05
2023-04-01T23:00:09.167Z,5.95
2023-04-01T23:03:07.833Z,6.40
2023-04-01T23:05:41.600Z,6.35
2023-04-01T23:08:30.563Z,6.90
2023-04-01T23:11:01.089Z,6.05
2023-04-01T23:13:39.091Z,6.15
2023-04-01T23:16:08.853Z,5.72
2023-04-01T23:18:47.570Z,5.20
2023-04-01T23:21:23.225Z,5.80
2023-04-01T23:23:57.269Z,5.07
2023-04-01T23:26:33.252Z,5.43
2023-04-01T23:29:01.483Z,6.00
2023-04-01T23:31:29.748Z,5.65
2023-04-01T23:34:18.584Z,6.60
2023-04-01T23:36:49.875Z,6.65
2023-04-01T23:39:23.925Z,6.72
2023-04-01T23:41:56.927Z,6.70
2023-04-01T23:44:30.113Z,7.03
2023-04-01T23:46:59.717Z,7.25
2023-04-01T23:49:31.972Z,8.32
2023-04-01T23:52:11.875Z,8.27
2023-04-01T23:54:47.420Z,8.05
2023-04-01T23:57:19.749Z,7.75
